createdAt,value
2023-04-03T00:00:11.988Z,99798.38
2023-04-03T00:01:18.568Z,99801.94
2023-04-03T00:02:24.318Z,99805.50
2023-04-03T00:03:34.502Z,99795.53
2023-04-03T00:04:41.628Z,99808.22
2023-04-03T00:05:52.810Z,99796.28
2023-04-03T00:06:56.742Z,99811.72
2023-04-03T00:08:13.628Z,99809.38
2023-04-03T00:09:18.380Z,99808.13
2023-04-03T00:10:27.104Z,99812.06
2023-04-03T00:11:30.872Z,99809.72
2023-04-03T00:12:37.845Z,99812.03
2023-04-03T00:13:44.252Z,99807.66
2023-04-03T00:14:48.160Z,99811.13
2023-04-03T00:15:51.060Z,99807.22
2023-04-03T00:17:06.024Z,99807.56
2023-04-03T00:18:12.603Z,99811.44
2023-04-03T00:19:21.555Z,99811.03
2023-04-03T00:20:26.640Z,99809.44
2023-04-03T00:21:31.759Z,99807.81
2023-04-03T00:22:42.688Z,99818.84
2023-04-03T00:23:46.126Z,99808.16
2023-04-03T00:24:54.792Z,99810.88
2023-04-03T00:26:00.682Z,99814.78
2023-04-03T00:27:09.462Z,99819.53
2023-04-03T00:28:15.063Z,99819.09
2023-04-03T00:29:20.838Z,99813.06
2023-04-03T00:30:51.558Z,99817.03
2023-04-03T00:31:58.124Z,99807.09
2023-04-03T00:33:02.455Z,99814.59
2023-04-03T00:34:07.047Z,99813.03
2023-04-03T00:35:11.389Z,99817.72
2023-04-03T00:36:20.282Z,99803.91
2023-04-03T00:37:29.387Z,99816.13
2023-04-03T00:38:33.598Z,99809.78
2023-04-03T00:39:38.487Z,99810.56
2023-04-03T00:40:53.011Z,99808.59
2023-04-03T00:42:01.176Z,99814.56
2023-04-03T00:43:15.927Z,99809.44
2023-04-03T00:44:44.162Z,99809.03
2023-04-03T00:45:59.047Z,99814.94
2023-04-03T00:47:05.576Z,99815.38
2023-04-03T00:48:19.982Z,99814.56
2023-04-03T00:49:31.712Z,99810.28
2023-04-03T00:50:42.413Z,99818.56
2023-04-03T00:51:52.384Z,99811.44
2023-04-03T00:52:58.170Z,99806.94
2023-04-03T00:54:08.844Z,99809.66
2023-04-03T00:55:13.734Z,99809.63
2023-04-03T00:56:21.123Z,99806.03
2023-04-03T00:57:27.778Z,99811.16
2023-04-03T00:58:39.062Z,99812.69
2023-04-03T00:59:54.170Z,99803.13
2023-04-03T01:01:07.685Z,99818.09
2023-04-03T01:02:18.229Z,99818.88
2023-04-03T01:03:22.651Z,99817.97
2023-04-03T01:04:32.530Z,99821.50
2023-04-03T01:05:42.970Z,99814.72
2023-04-03T01:06:51.690Z,99819.81
2023-04-03T01:07:58.465Z,99812.66
2023-04-03T01:09:04.022Z,99817.88
2023-04-03T01:10:12.335Z,99812.34
2023-04-03T01:11:45.691Z,99810.66
2023-04-03T01:12:53.244Z,99813.38
2023-04-03T01:13:58.680Z,99820.31
2023-04-03T01:15:13.363Z,99816.72
2023-04-03T01:16:17.878Z,99823.78
2023-04-03T01:17:37.887Z,99820.72
2023-04-03T01:18:41.625Z,99821.47
2023-04-03T01:20:04.280Z,99812.91
2023-04-03T01:21:43.304Z,99809.41
2023-04-03T01:23:08.994Z,99808.94
2023-04-03T01:24:34.517Z,99812.91
2023-04-03T01:25:42.202Z,99814.59
2023-04-03T01:26:58.280Z,99813.03
2023-04-03T01:28:01.652Z,99818.59
2023-04-03T01:29:10.490Z,99816.53
2023-04-03T01:30:19.812Z,99817.41
2023-04-03T01:32:04.732Z,99820.09
2023-04-03T01:33:09.879Z,99815.41
2023-04-03T01:34:13.333Z,99810.56
2023-04-03T01:35:23.517Z,99821.66
2023-04-03T01:36:32.865Z,99809.78
2023-04-03T01:37:36.303Z,99809.75
2023-04-03T01:38:44.817Z,99810.47
2023-04-03T01:39:49.244Z,99812.75
2023-04-03T01:40:52.006Z,99811.16
2023-04-03T01:41:55.922Z,99804.03
2023-04-03T01:43:06.545Z,99811.19
2023-04-03T01:44:13.234Z,99813.06
2023-04-03T01:45:19.625Z,99810.91
2023-04-03T01:46:29.244Z,99808.00
2023-04-03T01:48:23.706Z,99813.16
2023-04-03T01:49:29.082Z,99811.19
2023-04-03T01:50:33.587Z,99815.59
2023-04-03T01:51:39.337Z,99818.16
2023-04-03T01:52:42.665Z,99822.94
2023-04-03T01:53:46.364Z,99823.22
2023-04-03T01:54:52.726Z,99820.91
2023-04-03T01:56:00.672Z,99813.94
2023-04-03T01:57:03.892Z,99813.19
2023-04-03T01:58:08.396Z,99817.31
2023-04-03T01:59:14.818Z,99823.66
2023-04-03T02:00:19.372Z,99811.63
2023-04-03T02:01:23.654Z,99813.38
2023-04-03T02:02:28.966Z,99815.34
2023-04-03T02:03:33.488Z,99814.84
2023-04-03T02:04:37.625Z,99817.59
2023-04-03T02:05:43.822Z,99804.59
2023-04-03T02:06:52.612Z,99812.03
2023-04-03T02:07:59.009Z,99813.97
2023-04-03T02:10:23.700Z,99824.50
2023-04-03T02:11:30.239Z,99832.03
2023-04-03T02:12:38.505Z,99823.81
2023-04-03T02:13:42.298Z,99824.41
2023-04-03T02:14:49.058Z,99829.03
2023-04-03T02:15:52.452Z,99830.59
2023-04-03T02:16:58.098Z,99823.44
2023-04-03T02:18:07.776Z,99828.09
2023-04-03T02:19:16.482Z,99837.63
2023-04-03T02:20:20.852Z,99827.44
2023-04-03T02:21:25.593Z,99832.00
2023-04-03T02:22:31.380Z,99826.38
2023-04-03T02:23:37.799Z,99826.50
2023-04-03T02:24:42.841Z,99823.38
2023-04-03T02:25:46.156Z,99825.72
2023-04-03T02:26:52.326Z,99825.72
2023-04-03T02:27:58.435Z,99827.03
2023-04-03T02:29:03.159Z,99828.09
2023-04-03T02:30:06.990Z,99832.75
2023-04-03T02:31:12.541Z,99825.53
2023-04-03T02:32:18.268Z,99837.75
2023-04-03T02:33:24.862Z,99838.97
2023-04-03T02:34:28.999Z,99827.53
2023-04-03T02:35:33.965Z,99823.63
2023-04-03T02:36:41.407Z,99827.06
2023-04-03T02:37:48.945Z,99832.50
2023-04-03T02:38:52.127Z,99825.03
2023-04-03T02:40:02.316Z,99833.22
2023-04-03T02:41:12.179Z,99830.06
2023-04-03T02:42:14.875Z,99834.69
2023-04-03T02:43:27.131Z,99837.13
2023-04-03T02:44:31.935Z,99837.50
2023-04-03T02:45:38.346Z,99834.38
2023-04-03T02:46:41.257Z,99838.38
2023-04-03T02:47:44.774Z,99837.56
2023-04-03T02:48:53.807Z,99837.44
2023-04-03T02:49:58.680Z,99832.38
2023-04-03T02:51:04.652Z,99833.84
2023-04-03T02:52:07.811Z,99839.47
2023-04-03T02:53:11.860Z,99837.13
2023-04-03T02:54:15.013Z,99839.47
2023-04-03T02:55:24.603Z,99845.09
2023-04-03T02:56:30.098Z,99838.44
2023-04-03T02:57:36.700Z,99843.94
2023-04-03T02:58:39.903Z,99839.59
2023-04-03T02:59:45.789Z,99839.66
2023-04-03T03:00:52.107Z,99851.09
2023-04-03T03:01:57.116Z,99845.97
2023-04-03T03:03:01.086Z,99841.59
2023-04-03T03:04:06.754Z,99845.88
2023-04-03T03:05:09.912Z,99841.91
2023-04-03T03:06:14.852Z,99844.66
2023-04-03T03:07:18.004Z,99843.56
2023-04-03T03:08:21.780Z,99844.47
2023-04-03T03:09:26.617Z,99838.25
2023-04-03T03:10:30.135Z,99826.38
2023-04-03T03:11:34.266Z,99841.59
2023-04-03T03:12:40.765Z,99834.09
2023-04-03T03:13:45.448Z,99838.72
2023-04-03T03:14:48.436Z,99834.75
2023-04-03T03:15:51.702Z,99841.78
2023-04-03T03:16:58.949Z,99844.16
2023-04-03T03:18:03.454Z,99840.13
2023-04-03T03:19:08.034Z,99842.53
2023-04-03T03:20:16.936Z,99841.31
2023-04-03T03:21:20.915Z,99845.81
2023-04-03T03:22:36.400Z,99842.88
2023-04-03T03:23:42.951Z,99849.28
2023-04-03T03:24:47.378Z,99845.97
2023-04-03T03:25:57.606Z,99842.59
2023-04-03T03:27:01.509Z,99841.47
2023-04-03T03:28:15.964Z,99843.44
2023-04-03T03:29:22.517Z,99849.94
2023-04-03T03:30:25.671Z,99840.44
2023-04-03T03:31:29.526Z,99842.88
2023-04-03T03:32:35.723Z,99851.47
2023-04-03T03:33:38.561Z,99851.47
2023-04-03T03:34:41.685Z,99852.44
2023-04-03T03:35:46.346Z,99850.06
2023-04-03T03:36:50.789Z,99851.16
2023-04-03T03:37:56.843Z,99846.59
2023-04-03T03:39:00.233Z,99852.03
2023-04-03T03:40:04.255Z,99850.06
2023-04-03T03:41:12.474Z,99858.38
2023-04-03T03:42:16.969Z,99849.34
2023-04-03T03:43:21.375Z,99847.78
2023-04-03T03:44:27.522Z,99853.44
2023-04-03T03:45:35.816Z,99850.69
2023-04-03T03:46:39.080Z,99853.50
2023-04-03T03:47:43.432Z,99848.00
2023-04-03T03:48:48.888Z,99847.78
2023-04-03T03:49:56.375Z,99854.06
2023-04-03T03:51:06.777Z,99852.16
2023-04-03T03:52:16.704Z,99846.34
2023-04-03T03:53:23.331Z,99848.34
2023-04-03T03:54:30.798Z,99849.09
2023-04-03T03:55:36.893Z,99853.81
2023-04-03T03:56:40.241Z,99854.84
2023-04-03T03:57:43.097Z,99857.41
2023-04-03T03:58:49.425Z,99853.81
2023-04-03T03:59:54.023Z,99849.19
2023-04-03T04:00:56.935Z,99852.59
2023-04-03T04:02:00.262Z,99854.63
2023-04-03T04:03:04.752Z,99863.78
2023-04-03T04:04:08.626Z,99850.00
2023-04-03T04:05:12.635Z,99849.19
2023-04-03T04:06:21.170Z,99841.34
2023-04-03T04:07:24.417Z,99846.94
2023-04-03T04:08:27.988Z,99839.91
2023-04-03T04:09:31.008Z,99844.69
2023-04-03T04:10:34.807Z,99844.78
2023-04-03T04:11:37.783Z,99844.81
2023-04-03T04:12:40.739Z,99847.25
2023-04-03T04:13:44.320Z,99850.41
2023-04-03T04:14:49.278Z,99843.38
2023-04-03T04:15:54.153Z,99844.22
2023-04-03T04:16:57.731Z,99850.16
2023-04-03T04:18:04.769Z,99850.56
2023-04-03T04:19:09.131Z,99853.44
2023-04-03T04:20:18.018Z,99847.38
2023-04-03T04:21:21.917Z,99854.59
2023-04-03T04:22:26.385Z,99854.66
2023-04-03T04:23:31.458Z,99858.06
2023-04-03T04:24:38.413Z,99854.63
2023-04-03T04:25:45.055Z,99854.28
2023-04-03T04:26:47.464Z,99852.56
2023-04-03T04:27:52.067Z,99851.44
2023-04-03T04:28:55.201Z,99846.84
2023-04-03T04:29:59.349Z,99848.03
2023-04-03T04:31:05.850Z,99858.31
2023-04-03T04:32:08.400Z,99855.16
2023-04-03T04:33:11.008Z,99848.31
2023-04-03T04:34:14.655Z,99851.25
2023-04-03T04:35:17.419Z,99853.13
2023-04-03T04:36:22.399Z,99847.00
2023-04-03T04:37:25.131Z,99848.72
2023-04-03T04:38:29.683Z,99859.63
2023-04-03T04:39:33.821Z,99855.69
2023-04-03T04:40:36.509Z,99856.06
2023-04-03T04:41:38.344Z,99857.31
2023-04-03T04:42:41.358Z,99859.13
2023-04-03T04:43:43.226Z,99862.56
2023-04-03T04:44:46.285Z,99866.97
2023-04-03T04:45:49.625Z,99863.41
2023-04-03T04:46:54.759Z,99854.97
2023-04-03T04:47:57.609Z,99857.53
2023-04-03T04:49:01.038Z,99851.94
2023-04-03T04:50:07.377Z,99854.81
2023-04-03T04:51:09.784Z,99856.25
2023-04-03T04:52:13.227Z,99855.16
2023-04-03T04:53:19.285Z,99856.75
2023-04-03T04:54:22.535Z,99861.09
2023-04-03T04:55:29.566Z,99861.59
2023-04-03T04:56:31.727Z,99858.81
2023-04-03T04:57:35.764Z,99860.97
2023-04-03T04:58:43.085Z,99858.56
2023-04-03T04:59:45.049Z,99856.25
2023-04-03T05:00:48.259Z,99855.53
2023-04-03T05:01:51.076Z,99852.81
2023-04-03T05:02:53.038Z,99852.94
2023-04-03T05:03:55.502Z,99857.28
2023-04-03T05:05:01.480Z,99858.81
2023-04-03T05:06:09.376Z,99859.63
2023-04-03T05:07:12.773Z,99858.00
2023-04-03T05:08:14.985Z,99857.97
2023-04-03T05:09:19.899Z,99854.91
2023-04-03T05:10:23.250Z,99858.03
2023-04-03T05:11:26.755Z,99860.66
2023-04-03T05:12:30.335Z,99861.75
2023-04-03T05:13:36.878Z,99858.63
2023-04-03T05:14:40.030Z,99850.31
2023-04-03T05:15:44.712Z,99858.31
2023-04-03T05:16:47.739Z,99858.63
2023-04-03T05:17:54.010Z,99856.72
2023-04-03T05:18:57.671Z,99859.56
2023-04-03T05:20:00.471Z,99855.72
2023-04-03T05:21:04.479Z,99862.06
2023-04-03T05:22:07.750Z,99849.38
2023-04-03T05:23:12.695Z,99855.69
2023-04-03T05:24:18.323Z,99858.03
2023-04-03T05:25:23.211Z,99859.53
2023-04-03T05:26:28.304Z,99864.69
2023-04-03T05:27:32.108Z,99858.03
2023-04-03T05:28:36.255Z,99856.47
2023-04-03T05:29:45.280Z,99865.88
2023-04-03T05:30:58.357Z,99861.13
2023-04-03T05:32:06.439Z,99872.13
2023-04-03T05:33:11.001Z,99877.78
2023-04-03T05:34:20.288Z,99868.94
2023-04-03T05:35:26.601Z,99872.19
2023-04-03T05:36:45.735Z,99874.16
2023-04-03T05:37:55.187Z,99864.63
2023-04-03T05:38:57.847Z,99869.38
2023-04-03T05:40:01.078Z,99873.31
2023-04-03T05:41:03.118Z,99872.13
2023-04-03T05:42:05.331Z,99869.75
2023-04-03T05:43:07.296Z,99872.81
2023-04-03T05:44:12.347Z,99870.97
2023-04-03T05:45:14.596Z,99864.19
2023-04-03T05:46:19.477Z,99871.34
2023-04-03T05:47:25.108Z,99867.38
2023-04-03T05:48:27.649Z,99871.72
2023-04-03T05:49:30.841Z,99871.34
2023-04-03T05:50:32.904Z,99875.34
2023-04-03T05:51:40.239Z,99876.91
2023-04-03T05:52:53.908Z,99872.56
2023-04-03T05:54:17.294Z,99879.31
2023-04-03T05:55:19.549Z,99880.47
2023-04-03T05:56:21.484Z,99874.22
2023-04-03T05:57:24.055Z,99880.97
2023-04-03T05:58:29.533Z,99880.94
2023-04-03T05:59:33.236Z,99885.38
2023-04-03T06:00:38.169Z,99881.81
2023-04-03T06:01:43.292Z,99887.38
2023-04-03T06:02:46.862Z,99880.38
2023-04-03T06:03:55.743Z,99882.00
2023-04-03T06:05:02.224Z,99894.59
2023-04-03T06:06:05.955Z,99882.38
2023-04-03T06:07:13.732Z,99890.69
2023-04-03T06:08:16.542Z,99886.59
2023-04-03T06:09:27.084Z,99889.88
2023-04-03T06:10:31.420Z,99893.06
2023-04-03T06:11:37.231Z,99885.56
2023-04-03T06:12:46.483Z,99887.88
2023-04-03T06:13:49.008Z,99891.06
2023-04-03T06:14:52.291Z,99892.66
2023-04-03T06:15:58.024Z,99893.81
2023-04-03T06:17:15.566Z,99889.41
2023-04-03T06:18:18.827Z,99888.94
2023-04-03T06:19:35.306Z,99886.16
2023-04-03T06:20:41.157Z,99888.25
2023-04-03T06:21:52.189Z,99887.44
2023-04-03T06:22:56.154Z,99887.91
2023-04-03T06:23:59.164Z,99894.19
2023-04-03T06:25:02.749Z,99888.72
2023-04-03T06:26:07.036Z,99894.72
2023-04-03T06:27:12.609Z,99890.31
2023-04-03T06:28:16.914Z,99886.78
2023-04-03T06:30:44.203Z,99887.56
2023-04-03T06:31:47.431Z,99887.25
2023-04-03T06:32:55.349Z,99888.81
2023-04-03T06:34:04.201Z,99897.13
2023-04-03T06:35:11.780Z,99882.91
2023-04-03T06:36:21.128Z,99891.63
2023-04-03T06:37:24.184Z,99898.75
2023-04-03T06:38:31.788Z,99893.75
2023-04-03T06:39:38.723Z,99896.59
2023-04-03T06:44:20.421Z,99892.66
2023-04-03T06:45:23.143Z,99926.31
2023-04-03T06:46:29.524Z,99932.25
2023-04-03T06:47:31.374Z,99914.03
2023-04-03T06:48:33.341Z,99907.72
2023-04-03T06:49:37.251Z,99893.41
2023-04-03T06:51:51.885Z,99901.53
2023-04-03T06:58:40.622Z,99895.91
2023-04-03T07:25:16.290Z,99895.97
2023-04-03T07:26:19.576Z,99906.31
2023-04-03T07:27:21.810Z,99901.84
2023-04-03T07:32:23.396Z,99903.59
2023-04-03T07:33:25.688Z,99904.50
2023-04-03T07:34:31.809Z,99900.69
2023-04-03T07:35:34.124Z,99896.91
2023-04-03T07:36:38.816Z,99906.53
2023-04-03T07:37:41.146Z,99904.44
2023-04-03T07:38:47.811Z,99902.91
2023-04-03T07:39:50.253Z,99909.22
2023-04-03T07:40:54.079Z,99902.59
2023-04-03T07:41:59.984Z,99901.13
2023-04-03T07:43:04.117Z,99902.78
2023-04-03T07:44:13.745Z,99897.41
2023-04-03T07:45:51.394Z,99896.78
2023-04-03T09:31:30.285Z,99949.53
2023-04-03T09:32:44.548Z,99946.75
2023-04-03T09:34:52.844Z,99948.34
2023-04-03T09:36:06.580Z,99945.19
2023-04-03T09:37:44.783Z,99944.41
2023-04-03T09:39:26.557Z,99943.50
2023-04-03T09:45:27.759Z,99941.72
2023-04-03T09:46:59.480Z,99950.59
2023-04-03T09:48:22.806Z,99947.38
2023-04-03T09:49:31.096Z,99952.13
2023-04-03T09:50:43.508Z,99945.72
2023-04-03T09:52:44.010Z,99954.13
2023-04-03T09:55:47.313Z,99954.56
2023-04-03T09:57:06.727Z,99953.03
2023-04-03T09:58:42.596Z,99963.31
2023-04-03T10:00:03.877Z,99952.63
2023-04-03T10:01:39.447Z,99952.88
2023-04-03T10:02:58.868Z,99949.78
2023-04-03T10:04:41.976Z,99952.25
2023-04-03T10:05:49.785Z,99957.75
2023-04-03T10:06:58.389Z,99954.94
2023-04-03T10:08:44.024Z,99949.34
2023-04-03T10:10:00.316Z,99940.16
2023-04-03T10:11:20.194Z,99939.16
2023-04-03T10:12:30.641Z,99943.25
2023-04-03T10:13:45.293Z,99951.44
2023-04-03T10:15:02.446Z,99946.63
2023-04-03T10:16:17.607Z,99946.81
2023-04-03T10:18:04.365Z,99949.94
2023-04-03T10:20:01.492Z,99952.72
2023-04-03T10:22:06.982Z,99956.38
2023-04-03T10:23:47.394Z,99952.94
2023-04-03T10:25:25.798Z,99951.59
2023-04-03T10:27:22.103Z,99957.56
2023-04-03T10:29:14.849Z,99954.38
2023-04-03T10:31:14.068Z,99956.38
2023-04-03T10:33:06.089Z,99953.25
2023-04-03T10:34:34.420Z,99956.25
2023-04-03T10:36:23.349Z,99953.06
2023-04-03T10:37:54.600Z,99960.63
2023-04-03T10:39:23.299Z,99948.53
2023-04-03T10:40:44.461Z,99946.94
2023-04-03T10:42:17.315Z,99951.88
2023-04-03T10:43:39.238Z,99952.69
2023-04-03T10:45:11.802Z,99947.53
2023-04-03T10:46:23.677Z,99945.81
2023-04-03T10:48:02.918Z,99953.63
2023-04-03T10:49:33.881Z,99948.78
2023-04-03T10:51:40.602Z,99948.78
2023-04-03T10:53:11.801Z,99956.94
2023-04-03T10:54:29.394Z,99949.78
2023-04-03T10:56:21.288Z,99949.84
2023-04-03T10:58:15.651Z,99942.31
2023-04-03T10:59:41.042Z,99941.75
2023-04-03T11:00:57.354Z,99953.59
2023-04-03T11:02:23.633Z,99943.03
2023-04-03T11:05:57.547Z,99947.88
2023-04-03T11:07:20.695Z,99942.88
2023-04-03T11:08:37.728Z,99942.72
2023-04-03T11:10:05.073Z,99945.28
2023-04-03T11:11:33.929Z,99934.78
2023-04-03T11:12:57.500Z,99938.25
2023-04-03T11:14:47.048Z,99935.47
2023-04-03T11:15:57.195Z,99937.97
2023-04-03T11:19:48.450Z,99934.94
2023-04-03T11:21:22.807Z,99944.00
2023-04-03T11:22:54.847Z,99941.72
2023-04-03T11:24:35.750Z,99930.50
2023-04-03T11:25:56.231Z,99937.75
2023-04-03T11:27:19.215Z,99932.72
2023-04-03T11:28:35.365Z,99931.06
2023-04-03T11:29:51.992Z,99937.06
2023-04-03T11:31:52.427Z,99929.94
2023-04-03T11:33:04.804Z,99933.22
2023-04-03T11:34:16.128Z,99943.44
2023-04-03T11:35:30.764Z,99931.88
2023-04-03T11:37:08.834Z,99934.81
2023-04-03T11:38:27.017Z,99933.50
2023-04-03T11:39:37.219Z,99933.66
2023-04-03T11:40:44.832Z,99939.44
2023-04-03T11:41:51.779Z,99935.66
2023-04-03T11:43:03.961Z,99937.19
2023-04-03T11:44:27.794Z,99929.16
2023-04-03T11:45:52.072Z,99939.56
2023-04-03T11:46:58.432Z,99937.19
2023-04-03T11:48:30.924Z,99945.63
2023-04-03T11:50:11.151Z,99948.50
2023-04-03T11:51:14.459Z,99946.53
2023-04-03T11:52:49.598Z,99959.06
2023-04-03T11:54:17.469Z,99943.16
2023-04-03T11:55:32.628Z,99937.47
2023-04-03T11:56:41.849Z,99946.22
2023-04-03T11:58:00.212Z,99943.50
2023-04-03T11:59:23.501Z,99941.59
2023-04-03T12:00:49.189Z,99946.34
2023-04-03T12:01:59.639Z,99951.91
2023-04-03T12:03:24.196Z,99944.78
2023-04-03T12:04:32.307Z,99957.69
2023-04-03T12:05:39.408Z,99967.19
2023-04-03T12:06:47.192Z,99946.53
2023-04-03T12:08:46.941Z,99954.47
2023-04-03T12:09:59.948Z,99946.88
2023-04-03T12:11:15.074Z,99943.72
2023-04-03T12:12:36.111Z,99944.56
2023-04-03T12:13:43.469Z,99952.91
2023-04-03T12:14:48.296Z,99949.78
2023-04-03T12:15:54.819Z,99950.59
2023-04-03T12:17:01.936Z,99943.03
2023-04-03T12:18:41.204Z,99954.69
2023-04-03T12:19:47.570Z,99946.75
2023-04-03T12:21:10.546Z,99940.78
2023-04-03T12:22:17.003Z,99949.47
2023-04-03T12:23:34.365Z,99948.75
2023-04-03T12:24:48.827Z,99947.97
2023-04-03T12:25:52.799Z,99948.34
2023-04-03T12:27:35.319Z,99945.97
2023-04-03T12:28:40.916Z,99945.56
2023-04-03T12:30:07.069Z,99942.72
2023-04-03T12:31:11.968Z,99950.69
2023-04-03T12:32:28.366Z,99935.59
2023-04-03T12:34:09.071Z,99946.34
2023-04-03T12:35:25.819Z,99936.38
2023-04-03T12:36:41.138Z,99942.72
2023-04-03T12:38:03.129Z,99941.91
2023-04-03T12:39:28.314Z,99937.56
2023-04-03T12:40:59.404Z,99946.53
2023-04-03T12:42:54.790Z,99939.44
2023-04-03T12:44:57.237Z,99940.69
2023-04-03T12:46:52.199Z,99937.16
2023-04-03T12:48:00.017Z,99945.47
2023-04-03T12:49:33.809Z,99945.88
2023-04-03T12:50:40.560Z,99945.91
2023-04-03T12:51:52.417Z,99945.00
2023-04-03T12:53:19.228Z,99944.22
2023-04-03T12:54:33.119Z,99949.34
2023-04-03T12:55:45.574Z,99943.75
2023-04-03T12:57:27.309Z,99947.69
2023-04-03T12:58:40.359Z,99939.41
2023-04-03T12:59:47.693Z,99948.94
2023-04-03T13:01:04.990Z,99942.56
2023-04-03T13:02:32.354Z,99945.69
2023-04-03T13:03:43.199Z,99940.94
2023-04-03T13:04:49.210Z,99941.84
2023-04-03T13:05:56.615Z,99942.19
2023-04-03T13:07:20.666Z,99940.09
2023-04-03T13:08:33.998Z,99944.78
2023-04-03T13:09:59.915Z,99948.84
2023-04-03T13:11:33.343Z,99943.31
2023-04-03T13:13:10.534Z,99949.03
2023-04-03T13:14:32.498Z,99950.97
2023-04-03T13:15:50.691Z,99951.41
2023-04-03T13:17:20.639Z,99946.69
2023-04-03T13:18:44.592Z,99953.09
2023-04-03T13:19:57.995Z,99947.91
2023-04-03T13:21:14.118Z,99941.16
2023-04-03T13:22:45.622Z,99952.31
2023-04-03T13:24:03.546Z,99951.06
2023-04-03T13:25:35.212Z,99948.75
2023-04-03T13:26:47.834Z,99954.34
2023-04-03T13:28:15.944Z,99954.75
2023-04-03T13:29:36.290Z,99952.31
2023-04-03T13:31:31.158Z,99955.91
2023-04-03T13:32:48.765Z,99957.09
2023-04-03T13:34:19.026Z,99949.94
2023-04-03T13:35:52.983Z,99953.91
2023-04-03T13:37:03.682Z,99954.31
2023-04-03T13:38:49.652Z,99957.84
2023-04-03T13:40:32.502Z,99955.84
2023-04-03T13:41:52.204Z,99954.69
2023-04-03T13:43:29.458Z,99951.13
2023-04-03T13:44:49.379Z,99953.84
2023-04-03T13:46:23.549Z,99953.13
2023-04-03T13:47:27.912Z,99948.28
2023-04-03T13:48:41.916Z,99955.09
2023-04-03T13:49:47.766Z,99955.50
2023-04-03T13:51:03.077Z,99950.72
2023-04-03T13:52:30.436Z,99946.75
2023-04-03T13:53:59.179Z,99949.16
2023-04-03T13:55:35.968Z,99946.84
2023-04-03T13:56:44.698Z,99960.38
2023-04-03T13:58:03.832Z,99949.25
2023-04-03T13:59:22.057Z,99952.31
2023-04-03T14:00:53.387Z,99949.94
2023-04-03T14:02:23.773Z,99949.91
2023-04-03T14:03:30.615Z,99945.13
2023-04-03T14:05:02.496Z,99957.88
2023-04-03T14:06:24.163Z,99959.41
2023-04-03T14:07:36.133Z,99953.47
2023-04-03T14:08:57.278Z,99953.50
2023-04-03T14:10:10.895Z,99946.41
2023-04-03T14:11:29.669Z,99948.34
2023-04-03T14:12:48.145Z,99947.56
2023-04-03T14:16:15.870Z,99946.38
2023-04-03T14:17:51.488Z,99948.34
2023-04-03T14:19:39.798Z,99947.56
2023-04-03T14:21:11.425Z,99945.97
2023-04-03T14:24:06.562Z,99942.75
2023-04-03T14:27:16.801Z,99947.56
2023-04-03T14:30:57.334Z,99947.63
2023-04-03T14:35:01.706Z,99946.84
2023-04-03T14:36:31.962Z,99947.25
2023-04-03T14:37:44.489Z,99951.31
2023-04-03T14:39:05.463Z,99953.28
2023-04-03T14:42:05.167Z,99939.00
2023-04-03T14:43:21.113Z,99950.81
2023-04-03T14:44:40.645Z,99953.19
2023-04-03T14:45:53.987Z,99948.41
2023-04-03T14:47:29.684Z,99947.59
2023-04-03T14:48:51.530Z,99946.06
2023-04-03T14:50:07.345Z,99951.97
2023-04-03T14:51:27.121Z,99950.03
2023-04-03T14:52:47.316Z,99949.66
2023-04-03T14:53:52.840Z,99947.63
2023-04-03T14:55:07.292Z,99947.25
2023-04-03T14:56:46.243Z,99947.69
2023-04-03T14:58:07.190Z,99952.44
2023-04-03T14:59:31.860Z,99941.28
2023-04-03T15:00:43.602Z,99951.13
2023-04-03T15:02:23.588Z,99947.19
2023-04-03T15:05:17.481Z,99942.84
2023-04-03T15:06:36.342Z,99946.06
2023-04-03T15:08:02.927Z,99942.94
2023-04-03T15:09:41.257Z,99942.50
2023-04-03T15:11:01.867Z,99940.06
2023-04-03T15:12:35.074Z,99941.31
2023-04-03T15:14:13.788Z,99939.72
2023-04-03T15:17:25.376Z,99931.84
2023-04-03T15:18:39.771Z,99944.56
2023-04-03T15:19:59.640Z,99943.34
2023-04-03T15:22:01.724Z,99949.31
2023-04-03T15:23:17.905Z,99945.81
2023-04-03T15:24:28.778Z,99947.00
2023-04-03T15:25:40.665Z,99945.41
2023-04-03T15:26:57.254Z,99946.19
2023-04-03T15:28:09.613Z,99946.22
2023-04-03T15:29:26.757Z,99945.06
2023-04-03T15:30:36.737Z,99956.16
2023-04-03T15:33:28.748Z,99945.47
2023-04-03T15:35:24.155Z,99948.22
2023-04-03T15:38:02.597Z,99955.00
2023-04-03T19:27:04.013Z,100014.09
2023-04-03T19:28:14.786Z,100013.66
2023-04-03T19:29:28.843Z,100016.00
2023-04-03T19:30:43.274Z,100012.84
2023-04-03T19:31:52.760Z,100013.59
2023-04-03T19:32:55.770Z,100017.56
2023-04-03T19:34:01.186Z,100020.66
2023-04-03T19:38:31.516Z,100014.75
2023-04-03T19:40:11.382Z,100019.94
2023-04-03T19:41:29.754Z,100014.38
2023-04-03T19:42:56.430Z,100008.00
2023-04-03T19:51:39.866Z,100005.59
2023-04-03T19:52:58.742Z,100002.41
2023-04-03T19:54:12.966Z,99997.66
2023-04-03T19:58:10.735Z,100003.25
2023-04-03T19:59:30.406Z,100003.66
2023-04-03T20:00:56.648Z,100010.38
2023-04-03T20:02:14.200Z,100009.63
2023-04-03T20:03:27.959Z,100005.69
2023-04-03T20:04:35.519Z,100012.44
2023-04-03T20:05:39.853Z,100009.66
2023-04-03T20:06:51.724Z,100009.66
2023-04-03T20:08:06.089Z,100006.53
2023-04-03T20:09:13.153Z,100005.75
2023-04-03T20:10:25.906Z,100004.16
2023-04-03T20:11:59.476Z,100002.97
2023-04-03T20:13:11.883Z,100006.41
2023-04-03T20:14:22.392Z,100009.56
2023-04-03T20:15:44.230Z,100005.97
2023-04-03T20:17:22.887Z,100003.19
2023-04-03T20:18:53.424Z,99998.44
2023-04-03T20:20:05.040Z,100000.03
2023-04-03T20:22:56.564Z,100000.03
2023-04-03T20:26:15.835Z,100001.56
2023-04-03T20:27:30.286Z,100003.13
2023-04-03T20:28:41.869Z,99996.06
2023-04-03T20:29:55.486Z,99998.44
2023-04-03T20:43:11.992Z,99995.22
2023-04-03T20:44:19.646Z,99991.63
2023-04-03T20:45:31.948Z,99994.41
2023-04-03T20:46:52.213Z,99989.22
2023-04-03T23:40:02.698Z,99941.53
2023-04-03T23:41:28.486Z,99939.41
2023-04-03T23:42:47.745Z,99947.03
2023-04-03T23:44:00.850Z,99939.88
2023-04-03T23:45:51.455Z,99941.41
2023-04-03T23:47:03.328Z,99945.44
2023-04-03T23:48:33.468Z,99947.00
